Time;durP1;ratioP1;P1;durP2;ratioP2;P2;SDS_P1;SDS_P2;PMS_P1;PMS_P2;Temp;Humidity;BMP_temperature;BMP_pressure;BME280_temperature;BME280_humidity;BME280_pressure;Samples;Min_cycle;Max_cycle;Signal;HPM_P1;HPM_P2
2021/04/02 00:02:17;;;;;;;;;;;19.60;56.80;;;;;;5074600;28;1457;-69
2021/04/02 00:04:43;;;;;;;;;;;19.60;56.80;;;;;;5093068;28;1426;-69
2021/04/02 00:07:08;;;;;;;;;;;19.60;56.80;;;;;;5092095;28;1153;-69
2021/04/02 00:09:34;;;;;;;;;;;19.60;56.80;;;;;;5092432;28;1244;-69
2021/04/02 00:11:59;;;;;;;;;;;19.60;56.80;;;;;;5074087;28;1318;-68
2021/04/02 00:14:25;;;;;;;;;;;19.60;56.90;;;;;;5074016;28;1638;-69
2021/04/02 00:16:50;;;;;;;;;;;19.60;56.90;;;;;;5092792;28;1359;-69
2021/04/02 00:19:16;;;;;;;;;;;19.60;56.90;;;;;;5091491;28;1906;-69
2021/04/02 00:21:41;;;;;;;;;;;19.50;56.90;;;;;;5092479;28;1295;-69
2021/04/02 00:24:07;;;;;;;;;;;19.60;56.90;;;;;;5092798;28;1298;-69
2021/04/02 00:26:32;;;;;;;;;;;19.50;56.90;;;;;;5092115;28;1230;-69
2021/04/02 00:28:58;;;;;;;;;;;19.60;57.00;;;;;;5086879;28;1015;-68
2021/04/02 00:31:23;;;;;;;;;;;19.60;57.00;;;;;;5083655;28;1350;-69
2021/04/02 00:33:49;;;;;;;;;;;19.50;57.00;;;;;;5081250;28;1203;-68
2021/04/02 00:36:14;;;;;;;;;;;19.50;57.00;;;;;;5080438;28;1312;-69
2021/04/02 00:38:39;;;;;;;;;;;19.60;57.00;;;;;;5082637;28;1901;-69
2021/04/02 00:41:05;;;;;;;;;;;19.50;57.00;;;;;;5083712;28;1345;-69
2021/04/02 00:43:32;;;;;;;;;;;19.50;57.00;;;;;;5084627;28;1317;-68
2021/04/02 00:45:57;;;;;;;;;;;19.50;57.10;;;;;;5067870;28;1325;-67
2021/04/02 00:48:23;;;;;;;;;;;19.50;57.00;;;;;;5085239;28;1179;-67
2021/04/02 00:50:52;;;;;;;;;;;19.50;57.10;;;;;;5065380;28;1299;-68
2021/04/02 00:53:18;;;;;;;;;;;19.50;57.10;;;;;;5084127;28;1207;-67
2021/04/02 00:55:44;;;;;;;;;;;19.50;57.10;;;;;;5063960;28;1344;-69
2021/04/02 00:58:10;;;;;;;;;;;19.50;57.10;;;;;;5074181;28;1906;-69
2021/04/02 01:00:36;;;;;;;;;;;19.50;57.10;;;;;;5093018;28;1335;-70
2021/04/02 01:03:01;;;;;;;;;;;19.50;57.10;;;;;;5093544;28;1379;-69
2021/04/02 01:05:29;;;;;;;;;;;19.50;57.10;;;;;;5093044;28;1282;-70
2021/04/02 01:07:56;;;;;;;;;;;19.50;57.10;;;;;;5091900;28;1309;-70
2021/04/02 01:10:22;;;;;;;;;;;19.50;57.10;;;;;;5072116;28;1896;-69
2021/04/02 01:12:48;;;;;;;;;;;19.50;57.10;;;;;;5093107;28;1121;-70
2021/04/02 01:15:23;;;;;;;;;;;19.50;57.10;;;;;;5091628;28;1285;-70
2021/04/02 01:17:50;;;;;;;;;;;19.50;57.10;;;;;;5092868;28;1905;-69
2021/04/02 01:20:15;;;;;;;;;;;19.50;57.10;;;;;;5092689;28;1338;-70
2021/04/02 01:22:40;;;;;;;;;;;19.50;57.10;;;;;;5092791;28;1285;-70
2021/04/02 01:25:15;;;;;;;;;;;19.50;57.10;;;;;;5074519;28;1386;-69
2021/04/02 01:27:40;;;;;;;;;;;19.50;57.20;;;;;;5091847;28;1303;-70
2021/04/02 01:30:09;;;;;;;;;;;19.50;57.20;;;;;;5092493;28;1663;-69
2021/04/02 01:32:35;;;;;;;;;;;19.50;57.20;;;;;;5075390;28;1376;-71
2021/04/02 01:35:21;;;;;;;;;;;19.50;57.20;;;;;;5092539;28;1197;-71
2021/04/02 01:37:51;;;;;;;;;;;19.50;57.20;;;;;;5073121;28;1910;-71
2021/04/02 01:40:16;;;;;;;;;;;19.50;57.20;;;;;;5074696;28;1272;-71
2021/04/02 01:42:42;;;;;;;;;;;19.50;57.20;;;;;;5074271;28;1387;-71
2021/04/02 01:45:09;;;;;;;;;;;19.50;57.20;;;;;;5092419;28;1247;-71
2021/04/02 01:47:35;;;;;;;;;;;19.50;57.30;;;;;;5074181;28;1296;-70
2021/04/02 01:50:00;;;;;;;;;;;19.40;57.20;;;;;;5074361;28;1362;-70
2021/04/02 01:52:26;;;;;;;;;;;19.40;57.20;;;;;;5074222;28;1454;-70
2021/04/02 01:54:51;;;;;;;;;;;19.40;57.20;;;;;;5074510;28;1346;-71
2021/04/02 01:57:17;;;;;;;;;;;19.40;57.20;;;;;;5073827;28;1420;-71
2021/04/02 01:59:42;;;;;;;;;;;19.40;57.30;;;;;;5074408;28;1898;-71
2021/04/02 02:02:08;;;;;;;;;;;19.40;57.20;;;;;;5074251;28;1410;-71
2021/04/02 02:04:33;;;;;;;;;;;19.40;57.30;;;;;;5074469;28;1351;-70
2021/04/02 02:06:59;;;;;;;;;;;19.40;57.30;;;;;;5057527;28;1387;-71
2021/04/02 02:09:34;;;;;;;;;;;19.40;57.30;;;;;;5073647;28;1050;-71
2021/04/02 02:12:00;;;;;;;;;;;19.40;57.30;;;;;;5073824;28;1307;-71
2021/04/02 02:14:26;;;;;;;;;;;19.40;57.30;;;;;;5091197;28;1225;-71
2021/04/02 02:16:52;;;;;;;;;;;19.40;57.30;;;;;;5073946;28;1081;-70
2021/04/02 02:19:19;;;;;;;;;;;19.40;57.30;;;;;;5072891;28;1909;-70
2021/04/02 02:21:45;;;;;;;;;;;19.40;57.30;;;;;;5073821;28;1370;-70
2021/04/02 02:24:11;;;;;;;;;;;19.40;57.30;;;;;;5074394;28;1071;-71
2021/04/02 02:26:36;;;;;;;;;;;19.40;57.30;;;;;;5092252;28;1365;-71
2021/04/02 02:29:02;;;;;;;;;;;19.40;57.90;;;;;;5056543;28;1232;-70
2021/04/02 02:31:27;;;;;;;;;;;19.40;57.30;;;;;;5073519;28;1432;-71
2021/04/02 02:33:53;;;;;;;;;;;19.40;57.40;;;;;;5074205;28;1288;-71
2021/04/02 02:36:18;;;;;;;;;;;19.40;57.40;;;;;;5091981;28;1291;-71
2021/04/02 02:38:43;;;;;;;;;;;19.40;57.40;;;;;;5091221;28;1901;-71
2021/04/02 02:41:09;;;;;;;;;;;19.40;57.40;;;;;;5091266;28;1256;-72
2021/04/02 02:43:34;;;;;;;;;;;19.40;57.40;;;;;;5074394;28;1401;-71
2021/04/02 02:46:00;;;;;;;;;;;19.30;57.30;;;;;;5091711;28;979;-70
2021/04/02 02:48:25;;;;;;;;;;;19.30;57.40;;;;;;5091265;28;1353;-70
2021/04/02 02:50:54;;;;;;;;;;;19.40;57.40;;;;;;5091522;28;1342;-70
2021/04/02 02:53:20;;;;;;;;;;;19.30;57.40;;;;;;5091994;28;1230;-71
2021/04/02 02:55:46;;;;;;;;;;;19.40;57.40;;;;;;5057240;28;1277;-71
2021/04/02 02:58:12;;;;;;;;;;;19.40;57.40;;;;;;5072950;28;1906;-70
2021/04/02 03:00:38;;;;;;;;;;;19.30;58.00;;;;;;5073178;28;1354;-71
2021/04/02 03:03:04;;;;;;;;;;;19.30;57.40;;;;;;5076277;28;1354;-69
2021/04/02 03:05:30;;;;;;;;;;;19.40;57.40;;;;;;5077347;28;1149;-70
2021/04/02 03:07:56;;;;;;;;;;;19.40;57.40;;;;;;5076008;28;1575;-71
2021/04/02 03:10:21;;;;;;;;;;;19.40;57.10;;;;;;5077000;28;1357;-70
2021/04/02 03:12:47;;;;;;;;;;;19.30;57.10;;;;;;5077372;28;1288;-70
2021/04/02 03:15:13;;;;;;;;;;;19.40;57.10;;;;;;5077145;28;1219;-71
2021/04/02 03:17:38;;;;;;;;;;;19.50;57.10;;;;;;5094187;28;1291;-70
2021/04/02 03:20:07;;;;;;;;;;;19.50;57.00;;;;;;5094662;28;1973;-71
2021/04/02 03:22:33;;;;;;;;;;;19.60;56.90;;;;;;5077306;28;1086;-70
2021/04/02 03:24:58;;;;;;;;;;;19.70;56.70;;;;;;5076994;28;1305;-69
2021/04/02 03:27:24;;;;;;;;;;;19.80;56.60;;;;;;5095041;28;1324;-71
2021/04/02 03:29:50;;;;;;;;;;;19.90;56.30;;;;;;5076409;28;1292;-71
2021/04/02 03:32:15;;;;;;;;;;;20.00;56.10;;;;;;5076821;28;1230;-71
2021/04/02 03:34:40;;;;;;;;;;;20.10;55.80;;;;;;5076785;28;1157;-71
2021/04/02 03:37:07;;;;;;;;;;;20.20;55.60;;;;;;5077038;28;1316;-71
2021/04/02 03:39:33;;;;;;;;;;;20.30;55.40;;;;;;5076742;28;1956;-70
2021/04/02 03:41:59;;;;;;;;;;;20.40;55.30;;;;;;5076966;28;1695;-71
2021/04/02 03:44:25;;;;;;;;;;;20.50;55.10;;;;;;5085750;28;1379;-68
2021/04/02 03:46:51;;;;;;;;;;;20.60;54.90;;;;;;5067844;28;1077;-68
2021/04/02 03:49:18;;;;;;;;;;;20.70;54.80;;;;;;5092932;28;1276;-67
2021/04/02 03:51:44;;;;;;;;;;;20.70;54.50;;;;;;5073977;28;1211;-68
2021/04/02 03:54:10;;;;;;;;;;;20.80;54.40;;;;;;5075389;28;1340;-68
2021/04/02 03:56:35;;;;;;;;;;;20.90;54.30;;;;;;5093486;28;1313;-68
2021/04/02 03:59:02;;;;;;;;;;;20.90;54.20;;;;;;5073309;28;1969;-69
2021/04/02 04:01:31;;;;;;;;;;;20.90;54.10;;;;;;5075058;28;1309;-69
2021/04/02 04:03:57;;;;;;;;;;;21.00;54.00;;;;;;5093356;28;1044;-69
2021/04/02 04:06:23;;;;;;;;;;;21.00;53.90;;;;;;5075023;28;1232;-68
2021/04/02 04:08:50;;;;;;;;;;;21.10;53.90;;;;;;5074035;28;1396;-68
2021/04/02 04:11:16;;;;;;;;;;;21.10;53.80;;;;;;5074918;28;1435;-67
2021/04/02 04:13:41;;;;;;;;;;;21.10;53.70;;;;;;5073731;28;1402;-67
2021/04/02 04:16:07;;;;;;;;;;;21.20;53.70;;;;;;5074549;28;1288;-69
2021/04/02 04:18:32;;;;;;;;;;;21.20;53.60;;;;;;5073475;28;1905;-69
2021/04/02 04:20:58;;;;;;;;;;;21.30;53.60;;;;;;5093290;28;1354;-70
2021/04/02 04:23:23;;;;;;;;;;;21.30;53.50;;;;;;5075417;28;1279;-68
2021/04/02 04:25:49;;;;;;;;;;;21.30;53.40;;;;;;5074132;28;1296;-67
2021/04/02 04:28:15;;;;;;;;;;;21.30;53.40;;;;;;5060304;28;1338;-69
2021/04/02 04:30:41;;;;;;;;;;;21.40;53.40;;;;;;5092638;28;1330;-69
2021/04/02 04:33:06;;;;;;;;;;;21.40;53.30;;;;;;5093077;28;1385;-68
2021/04/02 04:35:32;;;;;;;;;;;21.40;53.30;;;;;;5074062;28;1332;-69
2021/04/02 04:37:57;;;;;;;;;;;21.40;53.30;;;;;;5073390;28;1957;-70
2021/04/02 04:40:23;;;;;;;;;;;21.40;53.20;;;;;;5074389;28;1288;-68
2021/04/02 04:42:48;;;;;;;;;;;21.40;53.20;;;;;;5092297;28;1280;-67
2021/04/02 04:45:15;;;;;;;;;;;21.50;53.20;;;;;;5093009;28;1306;-69
2021/04/02 04:47:41;;;;;;;;;;;21.50;53.20;;;;;;5073968;28;1363;-70
2021/04/02 04:50:06;;;;;;;;;;;21.50;53.10;;;;;;5074710;28;1714;-69
2021/04/02 04:52:32;;;;;;;;;;;21.50;53.10;;;;;;5092771;28;1268;-72
2021/04/02 04:54:58;;;;;;;;;;;21.50;53.10;;;;;;5074725;28;1280;-71
2021/04/02 04:57:24;;;;;;;;;;;21.50;53.00;;;;;;5073519;28;1317;-71
2021/04/02 04:59:50;;;;;;;;;;;21.60;53.10;;;;;;5057856;28;1961;-71
2021/04/02 05:02:16;;;;;;;;;;;21.50;53.00;;;;;;5074245;28;1211;-72
2021/04/02 05:04:41;;;;;;;;;;;21.60;53.00;;;;;;5074416;28;959;-72
2021/04/02 05:07:07;;;;;;;;;;;21.60;53.00;;;;;;5073850;28;1142;-70
2021/04/02 05:09:32;;;;;;;;;;;21.60;53.00;;;;;;5074304;28;1316;-70
2021/04/02 05:11:58;;;;;;;;;;;21.60;53.00;;;;;;5073821;28;1357;-70
2021/04/02 05:14:23;;;;;;;;;;;21.60;53.00;;;;;;5073042;28;1297;-71
2021/04/02 05:16:49;;;;;;;;;;;21.60;53.10;;;;;;5074450;28;1412;-69
2021/04/02 05:19:15;;;;;;;;;;;21.60;53.10;;;;;;5074117;28;1964;-70
2021/04/02 05:21:43;;;;;;;;;;;21.60;53.10;;;;;;5073914;28;1765;-70
2021/04/02 05:24:08;;;;;;;;;;;21.60;53.10;;;;;;5092571;28;1249;-69
2021/04/02 05:26:34;;;;;;;;;;;21.60;53.10;;;;;;5069956;28;1305;-68
2021/04/02 05:28:59;;;;;;;;;;;21.60;53.10;;;;;;5089840;28;1043;-68
2021/04/02 05:31:25;;;;;;;;;;;21.60;53.20;;;;;;5091382;28;1393;-68
2021/04/02 05:33:51;;;;;;;;;;;21.50;53.20;;;;;;5073816;28;1270;-69
2021/04/02 05:36:16;;;;;;;;;;;21.50;53.20;;;;;;5073513;28;1458;-70
2021/04/02 05:38:42;;;;;;;;;;;21.50;53.30;;;;;;5072552;28;1902;-69
2021/04/02 05:41:08;;;;;;;;;;;21.50;53.30;;;;;;5073078;28;1288;-71
2021/04/02 05:43:37;;;;;;;;;;;21.50;53.40;;;;;;5073394;28;1357;-70
2021/04/02 05:46:03;;;;;;;;;;;21.50;53.50;;;;;;5073632;28;1347;-69
2021/04/02 05:48:30;;;;;;;;;;;21.40;53.40;;;;;;5072630;28;1351;-70
2021/04/02 05:50:55;;;;;;;;;;;21.40;53.50;;;;;;5091302;28;1219;-70
2021/04/02 05:53:21;;;;;;;;;;;21.40;53.60;;;;;;5073525;28;1340;-69
2021/04/02 05:55:46;;;;;;;;;;;21.40;53.60;;;;;;5073537;28;1408;-69
2021/04/02 05:58:12;;;;;;;;;;;21.40;53.70;;;;;;5071865;28;1909;-68
2021/04/02 06:00:38;;;;;;;;;;;21.40;53.80;;;;;;5072607;28;1365;-69
2021/04/02 06:03:04;;;;;;;;;;;21.30;53.70;;;;;;5073772;28;1347;-68
2021/04/02 06:05:29;;;;;;;;;;;21.30;53.80;;;;;;5091192;28;1355;-68
2021/04/02 06:07:55;;;;;;;;;;;21.30;53.80;;;;;;5090540;28;1359;-68
2021/04/02 06:10:21;;;;;;;;;;;21.30;53.90;;;;;;5090695;28;1346;-68
2021/04/02 06:12:46;;;;;;;;;;;21.30;54.00;;;;;;5091556;28;1348;-71
2021/04/02 06:15:12;;;;;;;;;;;21.20;53.90;;;;;;5090598;28;1396;-68
2021/04/02 06:17:56;;;;;;;;;;;21.20;54.00;;;;;;5090662;28;1070;-69
2021/04/02 06:20:24;;;;;;;;;;;21.20;54.10;;;;;;5085336;28;1248;-69
2021/04/02 06:23:00;;;;;;;;;;;21.20;54.10;;;;;;5056217;28;1310;-69
2021/04/02 06:25:25;;;;;;;;;;;21.20;54.10;;;;;;5091097;28;1388;-68
2021/04/02 06:27:52;;;;;;;;;;;21.20;54.20;;;;;;5071844;28;1360;-67
2021/04/02 06:30:18;;;;;;;;;;;21.10;54.20;;;;;;5090603;28;1382;-68
2021/04/02 06:32:44;;;;;;;;;;;21.10;54.30;;;;;;5080938;28;1354;-68
2021/04/02 06:35:10;;;;;;;;;;;21.10;54.30;;;;;;5055748;28;1312;-68
2021/04/02 06:37:35;;;;;;;;;;;21.10;54.30;;;;;;5091972;28;1039;-67
2021/04/02 06:40:01;;;;;;;;;;;21.10;54.50;;;;;;5094754;28;1961;-67
2021/04/02 06:42:27;;;;;;;;;;;21.00;54.30;;;;;;5094813;28;1275;-68
2021/04/02 06:44:57;;;;;;;;;;;21.00;54.40;;;;;;5094932;28;1008;-68
2021/04/02 06:47:30;;;;;;;;;;;21.00;54.40;;;;;;5094682;28;1300;-68
2021/04/02 06:49:56;;;;;;;;;;;21.00;54.50;;;;;;5095301;28;1089;-67
2021/04/02 06:52:21;;;;;;;;;;;21.00;54.50;;;;;;5077103;28;1433;-69
2021/04/02 06:54:47;;;;;;;;;;;21.00;54.60;;;;;;5076699;28;1444;-68
2021/04/02 06:57:12;;;;;;;;;;;20.90;54.60;;;;;;5076092;28;1356;-70
2021/04/02 06:59:38;;;;;;;;;;;20.90;54.60;;;;;;5076596;28;1980;-69
2021/04/02 07:02:04;;;;;;;;;;;20.90;54.60;;;;;;5094948;28;1297;-67
2021/04/02 07:04:30;;;;;;;;;;;20.90;54.60;;;;;;5061091;28;1376;-68
2021/04/02 07:06:55;;;;;;;;;;;20.90;54.70;;;;;;5060644;28;1343;-68
2021/04/02 07:09:21;;;;;;;;;;;20.90;54.70;;;;;;5099005;28;1301;-67
2021/04/02 07:11:53;;;;;;;;;;;20.90;54.80;;;;;;5090899;28;1445;-69
2021/04/02 07:14:18;;;;;;;;;;;20.90;54.80;;;;;;5083432;28;1141;-69
2021/04/02 07:16:44;;;;;;;;;;;20.80;55.40;;;;;;5089341;28;1572;-68
2021/04/02 07:19:09;;;;;;;;;;;20.80;54.90;;;;;;5090590;28;1906;-68
2021/04/02 07:21:35;;;;;;;;;;;20.80;54.90;;;;;;5094864;28;1377;-68
2021/04/02 07:24:00;;;;;;;;;;;20.80;54.90;;;;;;5098273;28;1013;-67
2021/04/02 07:26:26;;;;;;;;;;;20.80;55.00;;;;;;5064120;28;1321;-67
2021/04/02 07:28:51;;;;;;;;;;;20.70;55.00;;;;;;5075283;28;1078;-68
2021/04/02 07:31:17;;;;;;;;;;;20.80;55.10;;;;;;5075554;28;1377;-68
2021/04/02 07:33:43;;;;;;;;;;;20.80;55.10;;;;;;5075087;28;898;-68
2021/04/02 07:36:09;;;;;;;;;;;20.80;55.10;;;;;;5075900;28;931;-68
2021/04/02 07:38:35;;;;;;;;;;;20.70;55.10;;;;;;5074815;28;1901;-68
2021/04/02 07:41:08;;;;;;;;;;;20.70;55.10;;;;;;5093129;28;1437;-68
2021/04/02 07:43:33;;;;;;;;;;;20.70;55.10;;;;;;5093416;28;1268;-68
2021/04/02 07:46:11;;;;;;;;;;;20.70;55.20;;;;;;5093317;28;1325;-68
2021/04/02 07:48:36;;;;;;;;;;;20.70;55.20;;;;;;5073964;28;1301;-66
2021/04/02 07:51:02;;;;;;;;;;;20.70;55.20;;;;;;5087441;28;1415;-68
2021/04/02 07:53:27;;;;;;;;;;;20.70;55.30;;;;;;5093505;28;1050;-69
2021/04/02 07:55:53;;;;;;;;;;;20.60;55.20;;;;;;5093188;28;1306;-68
2021/04/02 07:58:20;;;;;;;;;;;20.60;55.30;;;;;;5101879;22;2173;-65
2021/04/02 08:00:46;;;;;;;;;;;20.70;55.30;;;;;;5094257;28;1530;-64
2021/04/02 08:03:12;;;;;;;;;;;20.60;55.30;;;;;;5076858;28;1673;-64
2021/04/02 08:05:39;;;;;;;;;;;20.60;55.30;;;;;;5076796;28;1549;-65
2021/04/02 08:08:08;;;;;;;;;;;20.60;55.30;;;;;;5094358;28;1506;-66
2021/04/02 08:10:34;;;;;;;;;;;20.60;55.40;;;;;;5094765;28;1681;-67
2021/04/02 08:12:59;;;;;;;;;;;20.60;55.40;;;;;;5074954;28;1714;-66
2021/04/02 08:15:25;;;;;;;;;;;20.60;56.00;;;;;;5074622;28;1400;-65
2021/04/02 08:17:50;;;;;;;;;;;20.50;55.40;;;;;;5073943;28;1433;-65
2021/04/02 08:20:16;;;;;;;;;;;20.60;55.40;;;;;;5074432;28;1902;-66
2021/04/02 08:22:42;;;;;;;;;;;20.50;55.40;;;;;;5073033;28;1394;-65
2021/04/02 08:25:09;;;;;;;;;;;20.50;55.40;;;;;;5075405;28;1543;-67
2021/04/02 08:27:34;;;;;;;;;;;20.50;55.50;;;;;;5062277;28;1488;-65
2021/04/02 08:30:04;;;;;;;;;;;20.50;55.50;;;;;;5076311;28;1692;-66
2021/04/02 08:32:36;;;;;;;;;;;20.50;55.50;;;;;;5076897;28;1701;-64
2021/04/02 08:35:02;;;;;;;;;;;20.50;55.50;;;;;;5059636;28;1663;-65
2021/04/02 08:37:29;;;;;;;;;;;20.50;55.50;;;;;;5093686;28;1652;-66
2021/04/02 08:39:56;;;;;;;;;;;20.50;55.50;;;;;;5094219;28;1902;-68
2021/04/02 08:42:21;;;;;;;;;;;20.50;55.60;;;;;;5093728;28;1676;-65
2021/04/02 08:44:47;;;;;;;;;;;20.50;55.60;;;;;;5093918;28;1471;-66
2021/04/02 08:47:13;;;;;;;;;;;20.50;55.60;;;;;;5075157;28;1417;-66
2021/04/02 08:49:52;;;;;;;;;;;20.40;55.50;;;;;;5093841;28;1833;-66
2021/04/02 08:52:21;;;;;;;;;;;20.50;55.60;;;;;;5060041;28;1646;-65
2021/04/02 08:54:47;;;;;;;;;;;20.40;55.60;;;;;;5075787;28;1613;-64
2021/04/02 08:57:13;;;;;;;;;;;20.40;55.60;;;;;;5075096;28;1558;-65
2021/04/02 08:59:39;;;;;;;;;;;20.40;55.60;;;;;;5075082;28;1911;-64
2021/04/02 09:02:05;;;;;;;;;;;20.40;55.60;;;;;;5075805;28;1727;-65
2021/04/02 09:04:30;;;;;;;;;;;20.40;55.60;;;;;;5075647;28;1460;-65
2021/04/02 09:06:56;;;;;;;;;;;20.40;55.60;;;;;;5075513;28;1683;-65
2021/04/02 09:09:21;;;;;;;;;;;20.40;55.70;;;;;;5072735;28;1692;-65
2021/04/02 09:11:48;;;;;;;;;;;20.40;55.70;;;;;;5070547;28;1378;-69
2021/04/02 09:14:13;;;;;;;;;;;20.40;55.80;;;;;;5061601;28;1560;-65
2021/04/02 09:16:39;;;;;;;;;;;20.40;55.70;;;;;;5090054;28;1376;-65
2021/04/02 09:19:05;;;;;;;;;;;20.40;55.60;;;;;;5091826;28;1909;-64
2021/04/02 09:21:30;;;;;;;;;;;20.40;55.60;;;;;;5056305;28;1675;-65
2021/04/02 09:23:56;;;;;;;;;;;20.40;55.60;;;;;;5067563;28;1902;-67
2021/04/02 09:26:21;;;;;;;;;;;20.40;55.70;;;;;;5072541;28;1577;-64
2021/04/02 09:28:47;;;;;;;;;;;20.40;55.70;;;;;;5071615;28;1290;-65
2021/04/02 09:31:16;;;;;;;;;;;20.40;55.70;;;;;;5071546;28;2330;-65
2021/04/02 09:33:42;;;;;;;;;;;20.30;55.70;;;;;;5070503;28;1403;-65
2021/04/02 09:36:08;;;;;;;;;;;20.30;55.70;;;;;;5065803;28;1547;-65
2021/04/02 09:38:34;;;;;;;;;;;20.40;55.80;;;;;;5070876;28;1894;-65
2021/04/02 09:40:59;;;;;;;;;;;20.30;55.80;;;;;;5089978;28;1544;-64
2021/04/02 09:43:25;;;;;;;;;;;20.30;55.80;;;;;;5076783;28;1421;-66
2021/04/02 09:45:50;;;;;;;;;;;20.30;55.80;;;;;;5070073;28;1647;-64
2021/04/02 09:48:19;;;;;;;;;;;20.30;55.80;;;;;;5082553;28;1357;-65
2021/04/02 09:50:45;;;;;;;;;;;20.30;55.80;;;;;;5083929;28;1623;-65
2021/04/02 09:53:11;;;;;;;;;;;20.30;55.90;;;;;;5073635;28;1652;-66
2021/04/02 09:55:36;;;;;;;;;;;20.30;55.80;;;;;;5073042;28;1371;-64
2021/04/02 09:58:01;;;;;;;;;;;20.30;55.90;;;;;;5053192;28;1661;-64
2021/04/02 10:00:27;;;;;;;;;;;20.30;55.90;;;;;;5066857;28;1913;-65
2021/04/02 10:02:52;;;;;;;;;;;20.30;55.90;;;;;;5062569;28;1226;-65
2021/04/02 10:05:18;;;;;;;;;;;20.30;55.90;;;;;;5064199;28;1424;-66
2021/04/02 10:07:43;;;;;;;;;;;20.30;55.90;;;;;;5071231;28;1305;-65
2021/04/02 10:10:09;;;;;;;;;;;20.30;55.90;;;;;;5066826;28;1159;-65
2021/04/02 10:12:34;;;;;;;;;;;20.30;55.90;;;;;;5068164;28;1318;-66
2021/04/02 10:15:00;;;;;;;;;;;20.30;55.90;;;;;;5068965;28;1375;-64
2021/04/02 10:17:27;;;;;;;;;;;20.30;55.90;;;;;;5075207;28;1400;-65
2021/04/02 10:19:54;;;;;;;;;;;20.30;55.90;;;;;;5077687;28;1946;-65
2021/04/02 10:22:19;;;;;;;;;;;20.30;55.90;;;;;;5071389;28;1144;-64
2021/04/02 10:24:45;;;;;;;;;;;20.30;55.90;;;;;;5067386;28;1419;-65
2021/04/02 10:27:11;;;;;;;;;;;20.30;55.90;;;;;;5066979;28;1364;-65
2021/04/02 10:29:36;;;;;;;;;;;20.30;56.00;;;;;;5069662;28;1338;-65
2021/04/02 10:32:02;;;;;;;;;;;20.30;55.90;;;;;;5068423;28;1151;-66
2021/04/02 10:34:28;;;;;;;;;;;20.30;56.50;;;;;;5053001;28;1487;-65
2021/04/02 10:36:53;;;;;;;;;;;20.30;55.90;;;;;;5074403;28;1444;-65
2021/04/02 10:39:19;;;;;;;;;;;20.30;55.90;;;;;;5051749;28;1902;-65
2021/04/02 10:41:44;;;;;;;;;;;20.30;55.90;;;;;;5053201;28;1429;-65
2021/04/02 10:44:09;;;;;;;;;;;20.30;55.90;;;;;;5053255;28;1251;-65
2021/04/02 10:46:35;;;;;;;;;;;20.30;55.90;;;;;;5071027;28;1299;-65
2021/04/02 10:49:00;;;;;;;;;;;20.30;55.90;;;;;;5050848;28;1379;-65
2021/04/02 10:51:26;;;;;;;;;;;20.30;55.90;;;;;;5075073;28;1167;-65
2021/04/02 10:53:58;;;;;;;;;;;20.30;55.90;;;;;;5070171;28;1396;-66
2021/04/02 10:56:23;;;;;;;;;;;20.30;55.90;;;;;;5053865;28;1194;-66
2021/04/02 10:58:49;;;;;;;;;;;20.30;55.90;;;;;;5059660;28;1977;-66
2021/04/02 11:01:14;;;;;;;;;;;20.30;55.90;;;;;;5095133;28;1354;-65
2021/04/02 11:03:39;;;;;;;;;;;20.30;55.90;;;;;;5094906;28;1268;-65
2021/04/02 11:06:05;;;;;;;;;;;20.30;55.90;;;;;;5080225;28;1262;-66
2021/04/02 11:08:30;;;;;;;;;;;20.20;55.90;;;;;;5055659;28;1294;-66
2021/04/02 11:10:56;;;;;;;;;;;20.30;55.90;;;;;;5066523;28;1172;-64
2021/04/02 11:13:21;;;;;;;;;;;20.30;55.90;;;;;;5068861;28;1353;-64
2021/04/02 11:15:46;;;;;;;;;;;20.30;55.90;;;;;;5071331;28;1386;-66
2021/04/02 11:18:12;;;;;;;;;;;20.20;55.90;;;;;;5069486;28;2008;-66
2021/04/02 11:20:37;;;;;;;;;;;20.20;55.90;;;;;;5072161;28;1222;-65
2021/04/02 11:23:03;;;;;;;;;;;20.20;55.90;;;;;;5072321;28;1196;-64
2021/04/02 11:25:28;;;;;;;;;;;20.20;55.90;;;;;;5071284;28;1433;-65
2021/04/02 11:27:54;;;;;;;;;;;20.20;56.00;;;;;;5075029;28;1490;-65
2021/04/02 11:30:20;;;;;;;;;;;20.20;55.90;;;;;;5094600;28;1342;-65
2021/04/02 11:32:45;;;;;;;;;;;20.20;55.90;;;;;;5094364;28;1627;-65
2021/04/02 11:35:11;;;;;;;;;;;20.20;56.00;;;;;;5076144;28;1652;-64
2021/04/02 11:37:36;;;;;;;;;;;20.20;56.00;;;;;;5075576;28;1353;-65
2021/04/02 11:40:05;;;;;;;;;;;20.20;56.00;;;;;;5094046;28;1894;-65
2021/04/02 11:42:31;;;;;;;;;;;20.20;56.00;;;;;;5075582;28;1630;-65
2021/04/02 11:44:56;;;;;;;;;;;20.20;56.00;;;;;;5083624;28;1253;-65
2021/04/02 11:47:21;;;;;;;;;;;20.20;56.00;;;;;;5093636;28;1361;-67
2021/04/02 11:49:47;;;;;;;;;;;20.20;56.00;;;;;;5093991;28;1424;-65
2021/04/02 11:52:12;;;;;;;;;;;20.20;56.00;;;;;;5094051;28;1470;-65
2021/04/02 11:54:38;;;;;;;;;;;20.20;56.00;;;;;;5094118;28;1333;-68
2021/04/02 11:57:03;;;;;;;;;;;20.20;56.00;;;;;;5093735;28;1348;-65
2021/04/02 11:59:29;;;;;;;;;;;20.30;56.00;;;;;;5075625;28;1913;-65
2021/04/02 12:01:54;;;;;;;;;;;20.30;55.90;;;;;;5093834;28;1462;-67
2021/04/02 12:04:20;;;;;;;;;;;20.40;55.80;;;;;;5093423;28;1203;-65
2021/04/02 12:06:45;;;;;;;;;;;20.50;55.60;;;;;;5077173;28;1606;-65
2021/04/02 12:09:11;;;;;;;;;;;20.60;55.50;;;;;;5083150;28;1886;-66
2021/04/02 12:11:40;;;;;;;;;;;20.60;55.30;;;;;;5062277;28;1592;-65
2021/04/02 12:14:06;;;;;;;;;;;20.70;55.10;;;;;;5075308;28;1589;-65
2021/04/02 12:16:31;;;;;;;;;;;20.80;55.00;;;;;;5090536;28;1622;-65
2021/04/02 12:18:57;;;;;;;;;;;20.80;54.80;;;;;;5072726;28;1902;-65
2021/04/02 12:21:23;;;;;;;;;;;20.90;54.60;;;;;;5069219;28;1351;-65
2021/04/02 12:23:48;;;;;;;;;;;20.90;54.60;;;;;;5083241;28;1678;-65
2021/04/02 12:26:14;;;;;;;;;;;20.90;54.50;;;;;;5093504;28;1338;-65
2021/04/02 12:28:39;;;;;;;;;;;21.00;54.50;;;;;;5082183;28;1956;-66
2021/04/02 12:31:05;;;;;;;;;;;21.00;54.40;;;;;;5072745;28;1372;-65
2021/04/02 12:33:30;;;;;;;;;;;21.00;54.40;;;;;;5072853;28;1558;-65
2021/04/02 12:35:56;;;;;;;;;;;21.00;54.40;;;;;;5073639;28;1591;-66
2021/04/02 12:38:21;;;;;;;;;;;21.00;54.40;;;;;;5092671;28;1910;-65
2021/04/02 12:40:46;;;;;;;;;;;21.00;54.40;;;;;;5093203;28;1581;-65
2021/04/02 12:43:12;;;;;;;;;;;21.00;54.40;;;;;;5093229;28;1592;-65
2021/04/02 12:45:37;;;;;;;;;;;21.00;54.40;;;;;;5089502;28;1711;-65
2021/04/02 12:48:03;;;;;;;;;;;21.00;54.40;;;;;;5070445;28;1619;-65
2021/04/02 12:50:28;;;;;;;;;;;21.00;54.40;;;;;;5075673;28;1453;-66
2021/04/02 12:52:55;;;;;;;;;;;21.00;54.50;;;;;;5066410;28;1459;-65
2021/04/02 12:55:21;;;;;;;;;;;20.90;54.40;;;;;;5071193;28;1557;-68
2021/04/02 12:57:47;;;;;;;;;;;21.00;54.60;;;;;;5066984;28;1475;-68
2021/04/02 13:00:16;;;;;;;;;;;20.90;54.60;;;;;;5070094;28;1905;-67
2021/04/02 13:02:42;;;;;;;;;;;20.90;54.60;;;;;;5092569;28;1647;-68
2021/04/02 13:05:07;;;;;;;;;;;20.90;54.60;;;;;;5089840;28;1623;-66
2021/04/02 13:07:33;;;;;;;;;;;20.90;54.60;;;;;;5071945;28;1751;-67
2021/04/02 13:09:58;;;;;;;;;;;20.90;54.60;;;;;;5070780;28;1466;-66
2021/04/02 13:12:24;;;;;;;;;;;20.90;54.70;;;;;;5043649;28;1672;-65
2021/04/02 13:14:49;;;;;;;;;;;20.90;54.70;;;;;;5080985;28;1647;-68
2021/04/02 13:17:14;;;;;;;;;;;20.80;54.70;;;;;;5081640;28;1843;-65
2021/04/02 13:19:40;;;;;;;;;;;20.80;54.80;;;;;;5074857;28;1905;-66
2021/04/02 13:22:06;;;;;;;;;;;20.80;54.80;;;;;;5077650;28;1401;-66
2021/04/02 13:24:31;;;;;;;;;;;20.80;55.40;;;;;;5076171;28;1562;-66
2021/04/02 13:26:57;;;;;;;;;;;20.80;54.90;;;;;;5072260;28;1690;-64
2021/04/02 13:29:22;;;;;;;;;;;20.80;54.90;;;;;;5060461;28;1311;-65
2021/04/02 13:31:48;;;;;;;;;;;20.80;54.90;;;;;;5070811;28;1715;-65
2021/04/02 13:34:14;;;;;;;;;;;20.80;55.00;;;;;;5079831;28;1422;-64
2021/04/02 13:36:39;;;;;;;;;;;20.70;55.00;;;;;;5068712;28;1404;-64
2021/04/02 13:39:05;;;;;;;;;;;20.70;55.00;;;;;;5091501;28;1969;-65
2021/04/02 13:41:30;;;;;;;;;;;20.70;55.10;;;;;;5074171;28;1672;-66
2021/04/02 13:43:56;;;;;;;;;;;20.70;55.10;;;;;;5091888;28;1609;-65
2021/04/02 13:46:21;;;;;;;;;;;20.70;55.20;;;;;;5091700;28;1579;-65
2021/04/02 13:48:46;;;;;;;;;;;20.70;55.20;;;;;;5091474;28;1658;-66
2021/04/02 13:51:12;;;;;;;;;;;20.70;55.20;;;;;;5091967;28;1649;-64
2021/04/02 13:53:39;;;;;;;;;;;20.60;55.20;;;;;;5090027;28;1449;-69
2021/04/02 13:56:05;;;;;;;;;;;20.60;55.20;;;;;;5079870;28;1648;-65
2021/04/02 13:58:30;;;;;;;;;;;20.60;55.30;;;;;;5073413;28;1898;-68
2021/04/02 14:00:55;;;;;;;;;;;20.60;55.30;;;;;;5091700;28;1324;-68
2021/04/02 14:03:21;;;;;;;;;;;20.60;55.40;;;;;;5091553;28;1031;-67
2021/04/02 14:05:46;;;;;;;;;;;20.60;55.40;;;;;;5083510;28;1282;-68
2021/04/02 14:08:12;;;;;;;;;;;20.60;55.40;;;;;;5070805;28;1272;-68
2021/04/02 14:10:37;;;;;;;;;;;20.50;55.40;;;;;;5071244;28;1171;-67
2021/04/02 14:13:04;;;;;;;;;;;20.50;55.40;;;;;;5071453;28;1084;-68
2021/04/02 14:15:29;;;;;;;;;;;20.50;55.50;;;;;;5071057;28;1290;-66
2021/04/02 14:17:55;;;;;;;;;;;20.50;55.50;;;;;;5069887;28;1266;-68
2021/04/02 14:20:21;;;;;;;;;;;20.50;55.60;;;;;;5071491;28;1965;-68
2021/04/02 14:22:47;;;;;;;;;;;20.50;55.60;;;;;;5071297;28;1264;-68
2021/04/02 14:25:12;;;;;;;;;;;20.50;55.60;;;;;;5071381;28;1252;-67